Mohyliv-Podil's'Kyi, Ukraine
Current Conditions -  °F | °C
As of 3:00 PM on Wednesday 22 Oct 2014 (Local Time) from LRSV Reporting Station
Overcast Overcast  
Wind Chill: 55°   Ceiling: 1400
Heat Index: 55°   Visibility: 6mi
Dew Point: 55°   Wind: 16mph
Humidity: 100%   Direction: 150°SSE
Pressure: 29.62"   Gusts: NA
Location:  48.45°N, 27.79°E
Report Text: LRSV 221200Z 15014KT 090V170 9999 OVC014 13/13 Q1003
Loading
Personal Weather Stations






























Interactive Weather Map
Tropical Storm Tracking
New forecast layout! Learn more

10-Day Weather Forecast

Advertisements
Track Severe Weather on mobile